sensor_id;sensor_type;location;lat;lon;timestamp;P1;durP1;ratioP1;P2;durP2;ratioP2
17261;SDS011;9873;52.236;21.002;2023-04-28T00:02:26;15.83;;;8.87;;
17261;SDS011;9873;52.236;21.002;2023-04-28T00:12:32;18.03;;;8.70;;
17261;SDS011;9873;52.236;21.002;2023-04-28T00:22:34;17.43;;;8.13;;
17261;SDS011;9873;52.236;21.002;2023-04-28T00:32:38;15.63;;;9.00;;
17261;SDS011;9873;52.236;21.002;2023-04-28T00:42:43;20.30;;;8.67;;
17261;SDS011;9873;52.236;21.002;2023-04-28T00:52:49;18.47;;;8.83;;
17261;SDS011;9873;52.236;21.002;2023-04-28T01:02:56;13.53;;;8.10;;
17261;SDS011;9873;52.236;21.002;2023-04-28T01:13:07;16.30;;;8.23;;
17261;SDS011;9873;52.236;21.002;2023-04-28T01:23:14;17.10;;;8.57;;
17261;SDS011;9873;52.236;21.002;2023-04-28T01:33:22;18.90;;;8.77;;
17261;SDS011;9873;52.236;21.002;2023-04-28T01:43:28;21.47;;;9.53;;
17261;SDS011;9873;52.236;21.002;2023-04-28T01:53:32;19.20;;;8.50;;
17261;SDS011;9873;52.236;21.002;2023-04-28T02:03:38;20.17;;;10.40;;
17261;SDS011;9873;52.236;21.002;2023-04-28T02:13:41;16.60;;;8.87;;
17261;SDS011;9873;52.236;21.002;2023-04-28T02:23:45;17.80;;;9.33;;
17261;SDS011;9873;52.236;21.002;2023-04-28T02:33:50;18.30;;;9.80;;
17261;SDS011;9873;52.236;21.002;2023-04-28T02:43:54;17.40;;;8.90;;
17261;SDS011;9873;52.236;21.002;2023-04-28T02:53:58;18.83;;;9.90;;
17261;SDS011;9873;52.236;21.002;2023-04-28T03:04:03;18.53;;;9.27;;
17261;SDS011;9873;52.236;21.002;2023-04-28T03:14:11;20.30;;;9.07;;
17261;SDS011;9873;52.236;21.002;2023-04-28T03:24:14;19.07;;;9.20;;
17261;SDS011;9873;52.236;21.002;2023-04-28T03:34:23;15.13;;;10.13;;
17261;SDS011;9873;52.236;21.002;2023-04-28T03:44:28;18.27;;;9.93;;
17261;SDS011;9873;52.236;21.002;2023-04-28T03:54:32;16.80;;;9.50;;
17261;SDS011;9873;52.236;21.002;2023-04-28T04:04:34;17.40;;;9.97;;
17261;SDS011;9873;52.236;21.002;2023-04-28T04:14:38;18.60;;;10.30;;
17261;SDS011;9873;52.236;21.002;2023-04-28T04:24:46;17.30;;;10.70;;
17261;SDS011;9873;52.236;21.002;2023-04-28T04:34:49;24.43;;;11.50;;
17261;SDS011;9873;52.236;21.002;2023-04-28T04:44:56;24.90;;;11.17;;
17261;SDS011;9873;52.236;21.002;2023-04-28T04:55:04;22.38;;;11.55;;
17261;SDS011;9873;52.236;21.002;2023-04-28T05:05:07;19.88;;;11.60;;
17261;SDS011;9873;52.236;21.002;2023-04-28T05:15:43;20.13;;;10.82;;
17261;SDS011;9873;52.236;21.002;2023-04-28T05:25:58;14.48;;;10.30;;
17261;SDS011;9873;52.236;21.002;2023-04-28T05:36:22;19.83;;;11.15;;
17261;SDS011;9873;52.236;21.002;2023-04-28T05:46:30;19.05;;;10.98;;
17261;SDS011;9873;52.236;21.002;2023-04-28T05:56:35;20.40;;;10.65;;
17261;SDS011;9873;52.236;21.002;2023-04-28T06:06:42;15.15;;;9.50;;
17261;SDS011;9873;52.236;21.002;2023-04-28T06:16:44;18.85;;;10.15;;
17261;SDS011;9873;52.236;21.002;2023-04-28T06:26:47;18.85;;;9.63;;
17261;SDS011;9873;52.236;21.002;2023-04-28T06:36:50;12.55;;;7.32;;
17261;SDS011;9873;52.236;21.002;2023-04-28T06:46:54;17.30;;;6.38;;
17261;SDS011;9873;52.236;21.002;2023-04-28T06:56:58;18.25;;;6.00;;
17261;SDS011;9873;52.236;21.002;2023-04-28T07:07:03;9.77;;;4.88;;
17261;SDS011;9873;52.236;21.002;2023-04-28T07:17:09;9.13;;;4.32;;
17261;SDS011;9873;52.236;21.002;2023-04-28T07:27:11;8.77;;;3.92;;
17261;SDS011;9873;52.236;21.002;2023-04-28T07:37:13;9.40;;;3.70;;
17261;SDS011;9873;52.236;21.002;2023-04-28T07:47:18;4.90;;;2.80;;
17261;SDS011;9873;52.236;21.002;2023-04-28T07:57:28;4.18;;;2.67;;
17261;SDS011;9873;52.236;21.002;2023-04-28T08:07:34;6.05;;;2.90;;
17261;SDS011;9873;52.236;21.002;2023-04-28T08:17:38;3.47;;;1.92;;
17261;SDS011;9873;52.236;21.002;2023-04-28T08:27:41;3.17;;;2.55;;
17261;SDS011;9873;52.236;21.002;2023-04-28T08:37:44;3.65;;;2.28;;
17261;SDS011;9873;52.236;21.002;2023-04-28T08:47:47;3.83;;;2.22;;
17261;SDS011;9873;52.236;21.002;2023-04-28T08:57:52;5.38;;;2.60;;
17261;SDS011;9873;52.236;21.002;2023-04-28T09:08:02;5.88;;;2.85;;
17261;SDS011;9873;52.236;21.002;2023-04-28T09:18:07;5.30;;;2.97;;
17261;SDS011;9873;52.236;21.002;2023-04-28T09:28:20;4.75;;;3.05;;
17261;SDS011;9873;52.236;21.002;2023-04-28T09:38:27;4.95;;;3.33;;
17261;SDS011;9873;52.236;21.002;2023-04-28T09:48:35;4.63;;;2.65;;
17261;SDS011;9873;52.236;21.002;2023-04-28T09:58:40;4.70;;;2.95;;
17261;SDS011;9873;52.236;21.002;2023-04-28T10:08:52;7.13;;;3.30;;
17261;SDS011;9873;52.236;21.002;2023-04-28T10:19:03;5.60;;;2.80;;
17261;SDS011;9873;52.236;21.002;2023-04-28T10:29:14;5.13;;;2.80;;
17261;SDS011;9873;52.236;21.002;2023-04-28T10:39:20;6.43;;;2.97;;
17261;SDS011;9873;52.236;21.002;2023-04-28T10:49:37;8.85;;;3.15;;
17261;SDS011;9873;52.236;21.002;2023-04-28T11:11:13;7.47;;;2.25;;
17261;SDS011;9873;52.236;21.002;2023-04-28T11:21:18;7.25;;;2.60;;
17261;SDS011;9873;52.236;21.002;2023-04-28T11:31:27;3.40;;;2.60;;
17261;SDS011;9873;52.236;21.002;2023-04-28T11:41:30;4.15;;;2.22;;
17261;SDS011;9873;52.236;21.002;2023-04-28T11:51:38;4.10;;;2.50;;
17261;SDS011;9873;52.236;21.002;2023-04-28T12:01:48;6.45;;;2.88;;
17261;SDS011;9873;52.236;21.002;2023-04-28T12:12:00;4.43;;;2.78;;
17261;SDS011;9873;52.236;21.002;2023-04-28T12:22:10;4.75;;;2.55;;
17261;SDS011;9873;52.236;21.002;2023-04-28T12:42:42;3.95;;;2.78;;
17261;SDS011;9873;52.236;21.002;2023-04-28T12:52:47;6.13;;;2.70;;
17261;SDS011;9873;52.236;21.002;2023-04-28T13:03:07;4.47;;;2.78;;
17261;SDS011;9873;52.236;21.002;2023-04-28T13:13:15;5.07;;;3.30;;
17261;SDS011;9873;52.236;21.002;2023-04-28T13:23:31;4.72;;;3.28;;
17261;SDS011;9873;52.236;21.002;2023-04-28T13:33:38;4.95;;;3.47;;
17261;SDS011;9873;52.236;21.002;2023-04-28T13:43:59;5.10;;;3.08;;
17261;SDS011;9873;52.236;21.002;2023-04-28T13:54:07;6.03;;;3.88;;
17261;SDS011;9873;52.236;21.002;2023-04-28T14:04:13;8.82;;;3.58;;
17261;SDS011;9873;52.236;21.002;2023-04-28T14:14:18;7.50;;;4.35;;
17261;SDS011;9873;52.236;21.002;2023-04-28T14:24:23;7.32;;;4.60;;
17261;SDS011;9873;52.236;21.002;2023-04-28T14:34:30;9.70;;;4.70;;
17261;SDS011;9873;52.236;21.002;2023-04-28T14:44:37;6.15;;;4.13;;
17261;SDS011;9873;52.236;21.002;2023-04-28T14:54:44;7.35;;;4.88;;
17261;SDS011;9873;52.236;21.002;2023-04-28T15:04:51;9.98;;;4.93;;
17261;SDS011;9873;52.236;21.002;2023-04-28T15:14:59;6.82;;;4.55;;
17261;SDS011;9873;52.236;21.002;2023-04-28T15:25:01;7.22;;;5.07;;
17261;SDS011;9873;52.236;21.002;2023-04-28T15:35:06;6.28;;;4.45;;
17261;SDS011;9873;52.236;21.002;2023-04-28T15:45:14;6.45;;;4.60;;
17261;SDS011;9873;52.236;21.002;2023-04-28T15:55:21;8.43;;;5.00;;
17261;SDS011;9873;52.236;21.002;2023-04-28T16:05:25;6.07;;;4.75;;
17261;SDS011;9873;52.236;21.002;2023-04-28T16:15:30;7.32;;;4.60;;
17261;SDS011;9873;52.236;21.002;2023-04-28T16:25:36;5.65;;;4.60;;
17261;SDS011;9873;52.236;21.002;2023-04-28T16:35:42;9.80;;;4.35;;
17261;SDS011;9873;52.236;21.002;2023-04-28T16:45:46;8.40;;;4.63;;
17261;SDS011;9873;52.236;21.002;2023-04-28T16:55:51;5.82;;;4.57;;
17261;SDS011;9873;52.236;21.002;2023-04-28T17:05:57;8.02;;;5.20;;
17261;SDS011;9873;52.236;21.002;2023-04-28T17:16:01;12.40;;;4.93;;
17261;SDS011;9873;52.236;21.002;2023-04-28T17:26:07;9.23;;;4.45;;
17261;SDS011;9873;52.236;21.002;2023-04-28T17:36:14;7.55;;;4.60;;
17261;SDS011;9873;52.236;21.002;2023-04-28T17:46:20;6.85;;;3.75;;
17261;SDS011;9873;52.236;21.002;2023-04-28T17:56:23;5.70;;;4.60;;
17261;SDS011;9873;52.236;21.002;2023-04-28T18:06:28;8.63;;;5.40;;
17261;SDS011;9873;52.236;21.002;2023-04-28T18:16:33;7.63;;;4.80;;
17261;SDS011;9873;52.236;21.002;2023-04-28T18:26:35;11.50;;;5.32;;
17261;SDS011;9873;52.236;21.002;2023-04-28T18:36:37;7.75;;;4.82;;
17261;SDS011;9873;52.236;21.002;2023-04-28T18:46:43;9.65;;;5.55;;
17261;SDS011;9873;52.236;21.002;2023-04-28T18:56:55;8.93;;;5.38;;
17261;SDS011;9873;52.236;21.002;2023-04-28T19:07:01;9.93;;;6.00;;
17261;SDS011;9873;52.236;21.002;2023-04-28T19:17:06;11.65;;;6.20;;
17261;SDS011;9873;52.236;21.002;2023-04-28T19:27:12;12.13;;;6.95;;
17261;SDS011;9873;52.236;21.002;2023-04-28T19:37:16;12.15;;;7.78;;
17261;SDS011;9873;52.236;21.002;2023-04-28T19:47:29;13.38;;;7.32;;
17261;SDS011;9873;52.236;21.002;2023-04-28T19:57:39;13.80;;;7.70;;
17261;SDS011;9873;52.236;21.002;2023-04-28T20:07:43;15.88;;;9.63;;
17261;SDS011;9873;52.236;21.002;2023-04-28T20:17:56;16.87;;;9.47;;
17261;SDS011;9873;52.236;21.002;2023-04-28T20:27:59;12.55;;;9.10;;
17261;SDS011;9873;52.236;21.002;2023-04-28T20:38:04;16.05;;;10.02;;
17261;SDS011;9873;52.236;21.002;2023-04-28T20:48:08;17.57;;;8.87;;
17261;SDS011;9873;52.236;21.002;2023-04-28T20:58:13;14.83;;;10.07;;
17261;SDS011;9873;52.236;21.002;2023-04-28T21:08:15;17.73;;;9.50;;
17261;SDS011;9873;52.236;21.002;2023-04-28T21:18:18;16.93;;;10.57;;
17261;SDS011;9873;52.236;21.002;2023-04-28T21:28:28;13.60;;;9.30;;
17261;SDS011;9873;52.236;21.002;2023-04-28T21:38:34;13.33;;;8.73;;
17261;SDS011;9873;52.236;21.002;2023-04-28T21:48:44;14.23;;;10.00;;
17261;SDS011;9873;52.236;21.002;2023-04-28T21:58:49;19.33;;;10.30;;
17261;SDS011;9873;52.236;21.002;2023-04-28T22:08:53;11.43;;;7.07;;
17261;SDS011;9873;52.236;21.002;2023-04-28T22:18:58;15.73;;;9.97;;
17261;SDS011;9873;52.236;21.002;2023-04-28T22:29:04;17.33;;;10.50;;
17261;SDS011;9873;52.236;21.002;2023-04-28T22:39:16;16.67;;;9.43;;
17261;SDS011;9873;52.236;21.002;2023-04-28T22:49:20;18.07;;;11.03;;
17261;SDS011;9873;52.236;21.002;2023-04-28T22:59:32;15.10;;;11.37;;
17261;SDS011;9873;52.236;21.002;2023-04-28T23:09:38;17.67;;;11.63;;
17261;SDS011;9873;52.236;21.002;2023-04-28T23:19:43;17.97;;;11.37;;
17261;SDS011;9873;52.236;21.002;2023-04-28T23:29:45;19.57;;;11.40;;
17261;SDS011;9873;52.236;21.002;2023-04-28T23:39:50;14.70;;;10.07;;
17261;SDS011;9873;52.236;21.002;2023-04-28T23:49:52;19.77;;;11.50;;
